Boise, ID (83704)

6:59 PM MDT on September 18, 2014 (GMT -0600)
Original West Boise | Change Station
CLOSE
Current Station
Personal Weather Station
Location: Boise, ID
Elevation: 2659 ft
Nearby Weather Stations

Elev 2659 ft 43.65 °N, 116.32 °W | Updated 6 seconds ago

Partly Cloudy
Partly Cloudy
78.7 °F
Feels Like 79 °F
N
0.0
Wind Variable Wind from West
Gusts 1.0 mph

Today
High -- | Low -- °F
--% Chance of Precip.
Yesterday
High -- | Low -- °F
Precip. -- in
7:28 AM 7:49 PM
Waning Crescent, 23% visible
Pressure 29.68 in
Visibility 10.0 miles
Clouds Clear
Heat Index 79 °F
Dew Point 51 °F
Humidity 38%
Rainfall 0.00 in
Snow Depth 0 in , 0 in , 0 in
UV 0 out of 12
Pollen 8.10 out of 12
PM2.5 Unhealthy for Sensitive Groups
Flu Activity Not available.
METAR KBOI 190053Z 31009KT 10SM CLR 27/06 A2977 RMK AO2 SLP051 T02720056

More Conditions Fewer Conditions

Pressure 29.68 in
Visibility 10.0 miles
Clouds Clear
Heat Index 79 °F
Dew Point 51 °F
Humidity 38%
Rainfall 0.00 in
Snow Depth 0 in , 0 in , 0 in
UV 0 out of 12
Pollen 8.10 out of 12
PM2.5 Unhealthy for Sensitive Groups
Flu Activity Not available.
METAR KBOI 190053Z 31009KT 10SM CLR 27/06 A2977 RMK AO2 SLP051 T02720056

More Conditions Fewer Conditions

10-Day Weather Forecast

Almanac

Astronomy

Sep. 18, 2014 Rise Set
Actual Time 7:28 AM MDT 7:49 PM MDT
Civil Twilight 6:59 AM MDT 8:18 PM MDT
Nautical Twilight 6:25 AM MDT 8:52 PM MDT
Astronomical Twilight 5:50 AM MDT 9:26 PM MDT
Moon 2:16 AM MDT (9/18) 4:50 PM MDT (9/18)
Length of Visible Light 13h 19m
Length of Day
12h 21m
Tomorrow will be 2m 58s shorter.
Waning Crescent, 23% of the Moon is Illuminated
Today
Waning Crescent
Sep 24
New
Oct 1
First Quarter
Oct 8
Full
Oct 15
Last Quarter

Today's Extremes

State Highs State Lows

Community

WunderPhotos

Upload Photos

1,754,510 photos uploaded!

Nearby

Air Quality

  Air Quality AQ Index Pollutant
Yesterday Good
PM10
Yesterday Good
OZONE
Current Unhealthy for Sensitive Groups
PM2.5
Thursday Moderate
PM2.5
Thursday Good
OZONE
Friday Moderate
PM2.5
Friday Good
OZONE
Saturday Moderate
PM2.5

Snow Depth

Station Depth Elevation
Schwartz Lake 0 in 8620 ft
Hilts Creek 0 in 8000 ft
Deadwood Summit 0 in 6860 ft
Lost Lake 0 in 6110 ft
Magic Mountain 0 in 6880 ft

Earthquake Activity

City Distance Mag. Time & Date
No recent earthquake activity has been reported nearby.
Minimum magnitude displayed is 2.5.

Coastal Water Temperatures

Place Temperature
No Stations Reporting

Nearby Weather Stations